createdAt,value
2019-01-11T00:01:00.819Z,30.74
2019-01-11T00:02:09.741Z,30.91
2019-01-11T00:03:18.666Z,30.73
2019-01-11T00:04:27.855Z,30.82
2019-01-11T00:05:37.020Z,30.82
2019-01-11T00:06:46.197Z,30.74
2019-01-11T00:07:55.628Z,30.64
2019-01-11T00:09:05.322Z,30.73
2019-01-11T00:10:14.754Z,30.63
2019-01-11T00:11:24.178Z,30.73
2019-01-11T00:12:33.346Z,30.63
2019-01-11T00:13:42.525Z,30.73
2019-01-11T00:14:51.718Z,30.82
2019-01-11T00:16:00.632Z,30.82
2019-01-11T00:17:10.051Z,30.73
2019-01-11T00:18:19.731Z,30.73
2019-01-11T00:19:28.679Z,30.82
2019-01-11T00:20:38.143Z,30.53
2019-01-11T00:21:47.106Z,30.82
2019-01-11T00:22:56.274Z,30.73
2019-01-11T00:24:05.701Z,30.73
2019-01-11T00:25:15.127Z,30.63
2019-01-11T00:26:24.558Z,30.73
2019-01-11T00:27:33.731Z,30.63
2019-01-11T00:28:44.229Z,30.63
2019-01-11T00:29:53.709Z,30.73
2019-01-11T00:31:02.883Z,30.73
2019-01-11T00:32:12.061Z,30.73
2019-01-11T00:33:21.236Z,30.73
2019-01-11T00:34:30.970Z,30.63
2019-01-11T00:35:40.385Z,30.73
2019-01-11T00:36:49.579Z,30.53
2019-01-11T00:37:59.006Z,30.73
2019-01-11T00:39:07.941Z,30.63
2019-01-11T00:40:17.366Z,30.53
2019-01-11T00:41:26.567Z,30.53
2019-01-11T00:42:36.016Z,30.43
2019-01-11T00:43:45.443Z,30.63
2019-01-11T00:44:54.360Z,30.63
2019-01-11T00:46:03.287Z,30.73
2019-01-11T00:47:12.733Z,30.53
2019-01-11T00:48:22.423Z,30.53
2019-01-11T00:49:31.665Z,30.53
2019-01-11T00:50:41.090Z,30.43
2019-01-11T00:51:49.766Z,30.34
2019-01-11T00:52:58.691Z,30.34
2019-01-11T00:54:07.861Z,30.34
2019-01-11T00:55:17.541Z,30.43
2019-01-11T00:56:27.209Z,30.34
2019-01-11T00:57:36.154Z,30.34
2019-01-11T00:58:45.370Z,30.43
2019-01-11T00:59:54.541Z,30.32
2019-01-11T01:01:03.474Z,30.42
2019-01-11T01:02:12.923Z,30.22
2019-01-11T01:03:22.081Z,30.15
2019-01-11T01:04:31.743Z,30.42
2019-01-11T01:05:41.430Z,30.42
2019-01-11T01:06:51.108Z,30.42
2019-01-11T01:08:00.279Z,30.32
2019-01-11T01:09:09.459Z,30.42
2019-01-11T01:10:18.637Z,30.32
2019-01-11T01:11:27.299Z,30.42
2019-01-11T01:12:37.264Z,30.42
2019-01-11T01:13:46.678Z,30.42
2019-01-11T01:14:56.349Z,30.22
2019-01-11T01:16:05.295Z,30.32
2019-01-11T01:17:14.763Z,30.42
2019-01-11T01:18:23.451Z,30.42
2019-01-11T01:19:32.633Z,30.42
2019-01-11T01:20:42.307Z,30.61
2019-01-11T01:21:51.230Z,30.42
2019-01-11T01:23:00.945Z,30.13
2019-01-11T01:24:09.880Z,30.04
2019-01-11T01:25:19.030Z,30.13
2019-01-11T01:26:28.200Z,30.61
2019-01-11T01:27:37.116Z,30.04
2019-01-11T01:28:46.290Z,29.94
2019-01-11T01:29:55.491Z,29.94
2019-01-11T01:31:04.679Z,29.94
2019-01-11T01:32:14.107Z,29.94
2019-01-11T01:33:23.539Z,30.22
2019-01-11T01:34:33.243Z,30.13
2019-01-11T01:35:42.414Z,30.13
2019-01-11T01:36:51.354Z,30.13
2019-01-11T01:38:01.295Z,29.94
2019-01-11T01:39:10.474Z,29.94
2019-01-11T01:40:19.897Z,29.94
2019-01-11T01:41:29.332Z,29.94
2019-01-11T01:42:38.505Z,30.32
2019-01-11T01:43:48.180Z,30.42
2019-01-11T01:44:57.106Z,30.13
2019-01-11T01:46:06.565Z,30.32
2019-01-11T01:47:15.754Z,30.13
2019-01-11T01:48:24.431Z,30.04
2019-01-11T01:49:34.139Z,30.32
2019-01-11T01:50:43.345Z,30.13
2019-01-11T01:51:52.778Z,30.04
2019-01-11T01:53:02.199Z,29.94
2019-01-11T01:54:11.666Z,30.04
2019-01-11T01:55:20.837Z,30.04
2019-01-11T01:56:30.036Z,30.04
2019-01-11T01:57:38.967Z,29.94
2019-01-11T01:58:48.151Z,30.04
2019-01-11T01:59:57.584Z,30.04
2019-01-11T02:01:06.764Z,30.22
2019-01-11T02:02:15.700Z,30.04
2019-01-11T02:03:25.119Z,29.94
2019-01-11T02:04:34.045Z,30.22
2019-01-11T02:05:43.222Z,30.42
2019-01-11T02:06:52.650Z,30.22
2019-01-11T02:08:02.369Z,29.94
2019-01-11T02:09:11.553Z,30.04
2019-01-11T02:10:20.481Z,30.04
2019-01-11T02:11:29.909Z,30.04
2019-01-11T02:12:39.086Z,30.13
2019-01-11T02:13:48.287Z,30.04
2019-01-11T02:14:57.443Z,30.32
2019-01-11T02:16:06.625Z,30.13
2019-01-11T02:17:16.046Z,30.04
2019-01-11T02:18:25.498Z,30.04
2019-01-11T02:19:35.687Z,30.04
2019-01-11T02:20:44.869Z,30.04
2019-01-11T02:21:54.533Z,30.13
2019-01-11T02:23:03.213Z,29.84
2019-01-11T02:24:11.873Z,30.04
2019-01-11T02:25:21.558Z,30.13
2019-01-11T02:26:30.725Z,30.02
2019-01-11T02:27:39.944Z,30.11
2019-01-11T02:28:49.125Z,30.11
2019-01-11T02:29:58.544Z,29.83
2019-01-11T02:31:08.285Z,30.13
2019-01-11T02:32:17.969Z,30.11
2019-01-11T02:33:27.667Z,30.31
2019-01-11T02:34:36.603Z,29.93
2019-01-11T02:35:45.791Z,30.11
2019-01-11T02:36:55.672Z,30.13
2019-01-11T02:38:05.356Z,30.11
2019-01-11T02:39:14.561Z,29.83
2019-01-11T02:40:24.235Z,30.11
2019-01-11T02:41:33.674Z,29.93
2019-01-11T02:42:43.355Z,30.11
2019-01-11T02:43:53.293Z,29.93
2019-01-11T02:45:02.540Z,29.83
2019-01-11T02:46:12.224Z,30.21
2019-01-11T02:47:21.149Z,30.11
2019-01-11T02:48:30.105Z,30.11
2019-01-11T02:49:42.816Z,30.21
2019-01-11T02:50:52.497Z,30.31
2019-01-11T02:52:02.187Z,30.21
2019-01-11T02:53:11.871Z,29.93
2019-01-11T02:54:20.786Z,29.93
2019-01-11T02:55:29.961Z,30.21
2019-01-11T02:56:39.630Z,30.31
2019-01-11T02:57:48.793Z,30.21
2019-01-11T02:58:58.238Z,29.93
2019-01-11T03:00:07.953Z,30.31
2019-01-11T03:01:17.882Z,30.02
2019-01-11T03:02:26.814Z,30.02
2019-01-11T03:03:36.239Z,30.31
2019-01-11T03:04:45.941Z,29.93
2019-01-11T03:05:55.370Z,30.02
2019-01-11T03:07:04.816Z,30.02
2019-01-11T03:08:14.001Z,30.02
2019-01-11T03:09:23.198Z,29.93
2019-01-11T03:10:32.181Z,30.21
2019-01-11T03:11:41.851Z,30.21
2019-01-11T03:12:51.524Z,30.02
2019-01-11T03:14:00.455Z,30.02
2019-01-11T03:15:09.889Z,30.02
2019-01-11T03:16:19.331Z,30.21
2019-01-11T03:17:28.267Z,30.31
2019-01-11T03:18:37.198Z,30.31
2019-01-11T03:19:50.380Z,30.11
2019-01-11T03:20:59.811Z,30.31
2019-01-11T03:22:09.013Z,30.02
2019-01-11T03:23:18.698Z,30.02
2019-01-11T03:24:27.910Z,30.02
2019-01-11T03:25:37.337Z,30.11
2019-01-11T03:26:47.012Z,30.02
2019-01-11T03:27:56.441Z,30.11
2019-01-11T03:29:05.617Z,30.21
2019-01-11T03:30:14.807Z,30.02
2019-01-11T03:31:24.522Z,30.02
2019-01-11T03:32:34.503Z,30.31
2019-01-11T03:33:44.519Z,30.02
2019-01-11T03:34:53.692Z,30.21
2019-01-11T03:36:03.123Z,30.02
2019-01-11T03:37:12.552Z,30.02
2019-01-11T03:38:21.509Z,30.11
2019-01-11T03:39:30.973Z,30.02
2019-01-11T03:40:40.677Z,30.11
2019-01-11T03:41:50.125Z,30.1
2019-01-11T03:42:59.568Z,30.02
2019-01-11T03:44:09.250Z,30.11
2019-01-11T03:45:18.972Z,30.1
2019-01-11T03:46:27.940Z,30.02
2019-01-11T03:47:37.606Z,30.11
2019-01-11T03:48:47.304Z,30.02
2019-01-11T03:49:57.480Z,30.02
2019-01-11T03:51:06.927Z,30.19
2019-01-11T03:52:16.591Z,30.21
2019-01-11T03:53:26.168Z,30.21
2019-01-11T03:54:35.102Z,30.21
2019-01-11T03:55:44.532Z,30.21
2019-01-11T03:56:53.452Z,29.93
2019-01-11T03:58:02.902Z,30.21
2019-01-11T03:59:12.345Z,30.21
2019-01-11T04:00:21.783Z,30.19
2019-01-11T04:01:31.266Z,30.21
2019-01-11T04:02:40.977Z,30.21
2019-01-11T04:03:50.409Z,30.02
2019-01-11T04:04:59.572Z,29.72
2019-01-11T04:06:09.010Z,30.21
2019-01-11T04:07:18.191Z,30
2019-01-11T04:08:28.132Z,30.19
2019-01-11T04:09:37.614Z,30.21
2019-01-11T04:10:47.299Z,30.1
2019-01-11T04:11:57.026Z,30.1
2019-01-11T04:13:05.754Z,30.21
2019-01-11T04:14:14.949Z,30.1
2019-01-11T04:15:24.131Z,30.1
2019-01-11T04:16:33.826Z,30.21
2019-01-11T04:17:42.753Z,30.29
2019-01-11T04:18:52.410Z,29.62
2019-01-11T04:20:04.536Z,29.72
2019-01-11T04:21:13.721Z,30.1
2019-01-11T04:22:22.886Z,29.72
2019-01-11T04:23:32.576Z,29.81
2019-01-11T04:24:42.254Z,29.81
2019-01-11T04:25:52.187Z,29.81
2019-01-11T04:27:01.613Z,30.1
2019-01-11T04:28:11.289Z,30.1
2019-01-11T04:29:21.248Z,29.72
2019-01-11T04:30:30.715Z,29.72
2019-01-11T04:31:40.140Z,29.72
2019-01-11T04:32:49.821Z,29.81
2019-01-11T04:33:59.743Z,29.81
2019-01-11T04:35:09.186Z,29.72
2019-01-11T04:36:18.913Z,30.1
2019-01-11T04:37:28.101Z,30.1
2019-01-11T04:38:37.586Z,29.81
2019-01-11T04:39:46.797Z,29.72
2019-01-11T04:40:56.253Z,29.81
2019-01-11T04:42:05.458Z,30.1
2019-01-11T04:43:14.641Z,29.81
2019-01-11T04:44:24.326Z,29.72
2019-01-11T04:45:33.757Z,29.81
2019-01-11T04:46:42.951Z,29.72
2019-01-11T04:47:52.892Z,29.81
2019-01-11T04:49:02.583Z,29.91
2019-01-11T04:50:12.394Z,29.81
2019-01-11T04:51:21.816Z,29.91
2019-01-11T04:52:31.780Z,29.91
2019-01-11T04:53:40.735Z,29.91
2019-01-11T04:54:50.433Z,29.91
2019-01-11T04:55:59.620Z,30.1
2019-01-11T04:57:08.797Z,29.72
2019-01-11T04:58:17.975Z,29.72
2019-01-11T04:59:27.189Z,30.1
2019-01-11T05:00:36.876Z,29.62
2019-01-11T05:01:46.312Z,29.91
2019-01-11T05:02:55.503Z,29.81
2019-01-11T05:04:04.955Z,30.1
2019-01-11T05:05:14.172Z,29.72
2019-01-11T05:06:23.107Z,30.1
2019-01-11T05:07:32.548Z,30
2019-01-11T05:08:41.991Z,29.72
2019-01-11T05:09:51.418Z,29.81
2019-01-11T05:11:00.676Z,29.62
2019-01-11T05:12:10.146Z,29.72
2019-01-11T05:13:19.347Z,29.72
2019-01-11T05:14:28.538Z,29.72
2019-01-11T05:15:37.725Z,30.1
2019-01-11T05:16:47.407Z,30.1
2019-01-11T05:17:57.083Z,30.1
2019-01-11T05:19:05.765Z,30.19
2019-01-11T05:20:19.248Z,30.1
2019-01-11T05:21:28.923Z,30.1
2019-01-11T05:22:37.849Z,29.72
2019-01-11T05:23:47.578Z,30.19
2019-01-11T05:24:56.773Z,30.1
2019-01-11T05:26:05.962Z,30.1
2019-01-11T05:27:15.199Z,30.19
2019-01-11T05:28:24.394Z,30.1
2019-01-11T05:29:34.084Z,30.1
2019-01-11T05:30:43.280Z,30.1
2019-01-11T05:31:52.473Z,30.19
2019-01-11T05:33:01.661Z,30.19
2019-01-11T05:34:10.847Z,30
2019-01-11T05:35:20.537Z,30.1
2019-01-11T05:36:29.993Z,30.19
2019-01-11T05:37:39.929Z,29.72
2019-01-11T05:38:49.124Z,30.1
2019-01-11T05:39:58.805Z,30.29
2019-01-11T05:41:08.237Z,30.1
2019-01-11T05:42:17.925Z,29.81
2019-01-11T05:43:26.883Z,30.1
2019-01-11T05:44:36.327Z,30.1
2019-01-11T05:45:46.030Z,30.1
2019-01-11T05:46:55.301Z,30.1
2019-01-11T05:48:04.730Z,30.19
2019-01-11T05:49:13.911Z,29.72
2019-01-11T05:50:26.758Z,30.1
2019-01-11T05:51:36.705Z,30.1
2019-01-11T05:52:46.388Z,29.72
2019-01-11T05:53:55.873Z,30.1
2019-01-11T05:55:05.563Z,30.19
2019-01-11T05:56:15.314Z,30
2019-01-11T05:57:24.788Z,30.1
2019-01-11T05:58:34.230Z,29.81
2019-01-11T05:59:43.678Z,29.72
2019-01-11T06:00:53.110Z,30.29
2019-01-11T06:02:02.801Z,30.1
2019-01-11T06:03:12.497Z,30.29
2019-01-11T06:04:21.433Z,30.19
2019-01-11T06:05:30.658Z,30.29
2019-01-11T06:06:40.331Z,30.1
2019-01-11T06:07:50.030Z,30.19
2019-01-11T06:08:59.467Z,30.1
2019-01-11T06:10:09.431Z,30.1
2019-01-11T06:11:18.417Z,30.29
2019-01-11T06:12:27.870Z,30.19
2019-01-11T06:13:37.049Z,30
2019-01-11T06:14:46.235Z,30.08
2019-01-11T06:15:55.162Z,30.1
2019-01-11T06:17:04.836Z,30.08
2019-01-11T06:18:13.786Z,30.18
2019-01-11T06:19:22.498Z,30.08
2019-01-11T06:20:32.652Z,30.18
2019-01-11T06:21:41.882Z,29.99
2019-01-11T06:22:51.373Z,30.08
2019-01-11T06:24:00.799Z,30.08
2019-01-11T06:25:10.488Z,29.8
2019-01-11T06:26:19.916Z,30.08
2019-01-11T06:27:28.603Z,30.08
2019-01-11T06:28:37.522Z,30
2019-01-11T06:29:47.198Z,30.1
2019-01-11T06:30:56.118Z,29.99
2019-01-11T06:32:05.284Z,30.08
2019-01-11T06:33:14.484Z,29.8
2019-01-11T06:34:23.156Z,30.18
2019-01-11T06:35:32.857Z,30.1
2019-01-11T06:36:42.538Z,30.18
2019-01-11T06:37:51.972Z,30.18
2019-01-11T06:39:01.188Z,30.18
2019-01-11T06:40:10.356Z,30.19
2019-01-11T06:41:19.542Z,30.19
2019-01-11T06:42:28.972Z,30.28
2019-01-11T06:43:38.420Z,30.18
2019-01-11T06:44:47.333Z,30.28
2019-01-11T06:45:56.514Z,30.18
2019-01-11T06:47:05.998Z,29.99
2019-01-11T06:48:15.183Z,30.18
2019-01-11T06:49:24.370Z,30.29
2019-01-11T06:50:38.955Z,30.18
2019-01-11T06:51:48.405Z,30.28
2019-01-11T06:52:58.083Z,30.18
2019-01-11T06:54:07.547Z,30.08
2019-01-11T06:55:16.483Z,30.08
2019-01-11T06:56:25.924Z,30.18
2019-01-11T06:57:35.102Z,30.28
2019-01-11T06:58:44.300Z,30.19
2019-01-11T06:59:53.470Z,30.18
2019-01-11T07:01:02.493Z,30.1
2019-01-11T07:02:11.663Z,30.29
2019-01-11T07:03:21.756Z,30.18
2019-01-11T07:04:31.287Z,29.62
2019-01-11T07:05:40.230Z,29.81
2019-01-11T07:06:49.895Z,29.72
2019-01-11T07:07:58.572Z,29.91
2019-01-11T07:09:07.750Z,29.81
2019-01-11T07:10:17.167Z,29.81
2019-01-11T07:11:26.594Z,29.72
2019-01-11T07:12:36.045Z,29.81
2019-01-11T07:13:44.973Z,30.1
2019-01-11T07:14:54.668Z,29.72
2019-01-11T07:16:04.336Z,30.1
2019-01-11T07:17:13.505Z,29.72
2019-01-11T07:18:22.933Z,29.81
2019-01-11T07:19:31.861Z,30.1
2019-01-11T07:20:45.327Z,30.1
2019-01-11T07:21:54.753Z,30.19
2019-01-11T07:23:04.465Z,30
2019-01-11T07:24:13.648Z,30.1
2019-01-11T07:25:23.118Z,30.19
2019-01-11T07:26:31.830Z,29.91
2019-01-11T07:27:41.289Z,30.18
2019-01-11T07:28:50.739Z,30.18
2019-01-11T07:30:00.188Z,30.1
2019-01-11T07:31:09.384Z,30
2019-01-11T07:32:19.574Z,29.99
2019-01-11T07:33:28.774Z,30.18
2019-01-11T07:34:38.691Z,30.08
2019-01-11T07:35:47.657Z,30.1
2019-01-11T07:36:56.844Z,29.9
2019-01-11T07:38:06.544Z,30.19
2019-01-11T07:39:15.713Z,30.28
2019-01-11T07:40:25.141Z,30
2019-01-11T07:41:34.098Z,30.08
2019-01-11T07:42:43.022Z,30.1
2019-01-11T07:43:52.978Z,30
2019-01-11T07:45:01.911Z,29.99
2019-01-11T07:46:11.359Z,30.08
2019-01-11T07:47:20.555Z,30.28
2019-01-11T07:48:31.050Z,30.28
2019-01-11T07:49:40.727Z,30.08
2019-01-11T07:50:51.866Z,29.99
2019-01-11T07:52:01.049Z,29.9
2019-01-11T07:53:10.475Z,30.38
2019-01-11T07:54:19.172Z,30.38
2019-01-11T07:55:28.099Z,30.38
2019-01-11T07:56:37.803Z,30.38
2019-01-11T07:57:46.988Z,30.38
2019-01-11T07:58:56.690Z,30.28
2019-01-11T08:00:05.888Z,30.28
2019-01-11T08:01:15.323Z,30.28
2019-01-11T08:02:25.039Z,30.38
2019-01-11T08:03:34.732Z,30.08
2019-01-11T08:04:44.420Z,29.9
2019-01-11T08:05:53.628Z,30.28
2019-01-11T08:07:03.324Z,30.38
2019-01-11T08:08:12.750Z,29.99
2019-01-11T08:09:22.435Z,29.81
2019-01-11T08:10:31.859Z,30.18
2019-01-11T08:11:41.799Z,29.72
2019-01-11T08:12:51.275Z,29.81
2019-01-11T08:14:00.716Z,29.72
2019-01-11T08:15:10.134Z,30.19
2019-01-11T08:16:19.318Z,29.81
2019-01-11T08:17:28.513Z,29.52
2019-01-11T08:18:37.721Z,29.73
2019-01-11T08:19:46.887Z,29.73
2019-01-11T08:20:58.598Z,29.15
2019-01-11T08:22:08.282Z,29.25
2019-01-11T08:23:17.487Z,29.15
2019-01-11T08:24:27.211Z,29.15
2019-01-11T08:25:37.144Z,29.06
2019-01-11T08:26:46.074Z,29.15
2019-01-11T08:27:55.505Z,29.25
2019-01-11T08:29:04.687Z,29.36
2019-01-11T08:30:14.176Z,28.77
2019-01-11T08:31:23.668Z,28.97
2019-01-11T08:32:39.773Z,28.97
2019-01-11T08:33:48.956Z,28.97
2019-01-11T08:34:58.654Z,28.97
2019-01-11T08:36:08.085Z,28.97
2019-01-11T08:37:17.534Z,28.97
2019-01-11T08:38:27.245Z,28.78
2019-01-11T08:39:37.182Z,28.97
2019-01-11T08:40:46.656Z,28.88
2019-01-11T08:41:56.104Z,28.88
2019-01-11T08:43:04.796Z,28.69
2019-01-11T08:44:13.730Z,28.88
2019-01-11T08:45:23.172Z,28.69
2019-01-11T08:46:32.671Z,28.89
2019-01-11T08:47:42.104Z,28.99
2019-01-11T08:48:51.554Z,28.89
2019-01-11T08:50:00.737Z,28.89
2019-01-11T08:51:10.251Z,28.99
2019-01-11T08:52:19.710Z,29.08
2019-01-11T08:53:29.132Z,29.08
2019-01-11T08:54:38.567Z,28.99
2019-01-11T08:55:48.253Z,28.99
2019-01-11T08:56:57.458Z,28.99
2019-01-11T08:58:06.928Z,29.07
2019-01-11T08:59:16.359Z,28.99
2019-01-11T09:00:25.535Z,28.97
2019-01-11T09:01:35.213Z,28.89
2019-01-11T09:02:43.925Z,28.97
2019-01-11T09:03:53.098Z,28.88
2019-01-11T09:05:02.063Z,28.78
2019-01-11T09:06:11.280Z,28.78
2019-01-11T09:07:20.473Z,29.27
2019-01-11T09:08:30.468Z,29.27
2019-01-11T09:09:39.668Z,29.27
2019-01-11T09:10:48.859Z,29.27
2019-01-11T09:11:58.044Z,29.27
2019-01-11T09:13:07.234Z,28.97
2019-01-11T09:14:16.422Z,29.17
2019-01-11T09:15:25.639Z,29.27
2019-01-11T09:16:34.611Z,29.17
2019-01-11T09:17:44.304Z,29.36
2019-01-11T09:18:53.490Z,29.27
2019-01-11T09:20:02.938Z,29.36
2019-01-11T09:21:13.554Z,29.27
2019-01-11T09:22:22.978Z,29.55
2019-01-11T09:23:32.430Z,29.74
2019-01-11T09:24:42.112Z,29.65
2019-01-11T09:25:51.061Z,29.65
2019-01-11T09:27:00.285Z,29.55
2019-01-11T09:28:09.728Z,29.46
2019-01-11T09:29:19.180Z,29.27
2019-01-11T09:30:28.624Z,29.74
2019-01-11T09:31:37.814Z,29.74
2019-01-11T09:32:47.243Z,29.65
2019-01-11T09:33:56.215Z,29.55
2019-01-11T09:35:05.925Z,29.55
2019-01-11T09:36:15.130Z,29.65
2019-01-11T09:37:24.841Z,29.65
2019-01-11T09:38:34.283Z,29.84
2019-01-11T09:39:43.724Z,29.74
2019-01-11T09:40:53.186Z,29.55
2019-01-11T09:42:02.392Z,29.36
2019-01-11T09:43:12.074Z,29.46
2019-01-11T09:44:21.765Z,29.36
2019-01-11T09:45:31.201Z,29.46
2019-01-11T09:46:40.643Z,30.04
2019-01-11T09:47:49.961Z,29.84
2019-01-11T09:48:59.415Z,29.84
2019-01-11T09:50:08.604Z,29.73
2019-01-11T09:51:18.031Z,29.74
2019-01-11T09:52:27.002Z,29.84
2019-01-11T09:53:35.708Z,29.84
2019-01-11T09:54:46.033Z,29.83
2019-01-11T09:55:55.552Z,29.84
2019-01-11T09:57:04.985Z,29.74
2019-01-11T09:58:14.416Z,29.74
2019-01-11T09:59:23.842Z,29.83
2019-01-11T10:00:37.948Z,29.83
2019-01-11T10:01:48.094Z,29.93
2019-01-11T10:02:57.776Z,29.83
2019-01-11T10:04:07.222Z,29.93
2019-01-11T10:05:16.707Z,29.93
2019-01-11T10:06:25.891Z,29.84
2019-01-11T10:07:35.080Z,29.83
2019-01-11T10:08:44.280Z,30.11
2019-01-11T10:09:53.222Z,29.83
2019-01-11T10:11:02.923Z,30.11
2019-01-11T10:12:12.848Z,30.11
2019-01-11T10:13:21.514Z,30.31
2019-01-11T10:14:30.456Z,30.21
2019-01-11T10:15:39.877Z,30.04
2019-01-11T10:16:48.840Z,30.11
2019-01-11T10:17:58.267Z,30.31
2019-01-11T10:19:07.469Z,30.31
2019-01-11T10:20:16.918Z,30.31
2019-01-11T10:21:26.519Z,30.31
2019-01-11T10:22:35.964Z,30.02
2019-01-11T10:23:45.169Z,30.11
2019-01-11T10:24:54.601Z,30.11
2019-01-11T10:26:04.064Z,30.02
2019-01-11T10:27:13.765Z,30.31
2019-01-11T10:28:23.521Z,30.02
2019-01-11T10:29:32.708Z,30.21
2019-01-11T10:30:41.899Z,30.21
2019-01-11T10:31:51.343Z,30.31
2019-01-11T10:33:00.772Z,30.31
2019-01-11T10:34:10.463Z,30.02
2019-01-11T10:35:19.170Z,30.11
2019-01-11T10:36:28.603Z,30.21
2019-01-11T10:37:38.028Z,30.11
2019-01-11T10:38:47.219Z,30.21
2019-01-11T10:39:56.417Z,29.93
2019-01-11T10:41:05.594Z,30.31
2019-01-11T10:42:14.541Z,30.02
2019-01-11T10:43:23.492Z,30.02
2019-01-11T10:44:32.407Z,30.02
2019-01-11T10:45:41.589Z,30.02
2019-01-11T10:46:51.572Z,29.93
2019-01-11T10:48:01.500Z,30.02
2019-01-11T10:49:10.717Z,29.93
2019-01-11T10:50:20.169Z,30.11
2019-01-11T10:51:30.412Z,29.93
2019-01-11T10:52:39.617Z,29.93
2019-01-11T10:53:48.571Z,30.02
2019-01-11T10:54:58.041Z,29.93
2019-01-11T10:56:07.490Z,30.02
2019-01-11T10:57:16.919Z,30.21
2019-01-11T10:58:26.837Z,30.02
2019-01-11T10:59:36.282Z,30.21
2019-01-11T11:00:45.719Z,29.93
2019-01-11T11:01:54.911Z,30.11
2019-01-11T11:03:04.112Z,29.93
2019-01-11T11:04:13.045Z,30.11
2019-01-11T11:05:21.794Z,30.21
2019-01-11T11:06:31.485Z,30.31
2019-01-11T11:07:40.686Z,30.21
2019-01-11T11:08:50.184Z,30.31
2019-01-11T11:09:59.369Z,30.31
2019-01-11T11:11:08.571Z,30.31
2019-01-11T11:12:21.690Z,29.93
2019-01-11T11:13:30.879Z,29.93
2019-01-11T11:14:40.561Z,30.11
2019-01-11T11:15:49.263Z,30.11
2019-01-11T11:16:58.187Z,29.93
2019-01-11T11:18:07.621Z,30.11
2019-01-11T11:19:17.088Z,30.11
2019-01-11T11:20:26.275Z,30.11
2019-01-11T11:21:37.277Z,30.11
2019-01-11T11:22:46.958Z,30.11
2019-01-11T11:23:56.371Z,29.93
2019-01-11T11:25:05.316Z,30.31
2019-01-11T11:26:14.753Z,29.93
2019-01-11T11:27:24.182Z,29.93
2019-01-11T11:28:33.377Z,30.11
2019-01-11T11:29:42.558Z,30.21
2019-01-11T11:30:54.759Z,29.93
2019-01-11T11:32:03.999Z,30.11
2019-01-11T11:33:13.208Z,30.11
2019-01-11T11:34:22.395Z,30.11
2019-01-11T11:35:31.579Z,30.21
2019-01-11T11:36:40.264Z,30.02
2019-01-11T11:37:49.248Z,30.21
2019-01-11T11:38:58.437Z,30.21
2019-01-11T11:40:07.362Z,30.02
2019-01-11T11:41:17.289Z,30.02
2019-01-11T11:42:26.212Z,30.31
2019-01-11T11:43:35.891Z,29.83
2019-01-11T11:44:45.057Z,30.11
2019-01-11T11:45:54.487Z,30.11
2019-01-11T11:47:03.688Z,30.04
2019-01-11T11:48:13.360Z,30.11
2019-01-11T11:49:22.782Z,30.11
2019-01-11T11:50:32.722Z,30.32
2019-01-11T11:51:43.953Z,30.22
2019-01-11T11:52:53.148Z,30.21
2019-01-11T11:54:02.322Z,30.13
2019-01-11T11:55:11.267Z,29.94
2019-01-11T11:56:20.693Z,30.11
2019-01-11T11:57:30.380Z,30.11
2019-01-11T11:58:39.605Z,29.84
2019-01-11T11:59:48.549Z,30.22
2019-01-11T12:00:57.997Z,30.21
2019-01-11T12:02:06.961Z,30.04
2019-01-11T12:03:21.699Z,30.02
2019-01-11T12:04:31.161Z,30.22
2019-01-11T12:05:40.616Z,30.22
2019-01-11T12:06:50.319Z,30.04
2019-01-11T12:07:59.508Z,30.02
2019-01-11T12:09:08.957Z,30.31
2019-01-11T12:10:18.629Z,30.21
2019-01-11T12:11:28.305Z,30.31
2019-01-11T12:12:37.241Z,30.11
2019-01-11T12:13:46.176Z,29.93
2019-01-11T12:14:55.362Z,30.02
2019-01-11T12:16:04.548Z,29.93
2019-01-11T12:17:14.262Z,30.31
2019-01-11T12:18:22.966Z,30.13
2019-01-11T12:19:31.909Z,30.21
2019-01-11T12:20:41.337Z,30.11
2019-01-11T12:21:51.026Z,30.02
2019-01-11T12:23:06.298Z,30.11
2019-01-11T12:24:15.748Z,30.11
2019-01-11T12:25:25.433Z,30.02
2019-01-11T12:26:34.378Z,30.11
2019-01-11T12:27:43.317Z,29.93
2019-01-11T12:28:53.250Z,29.94
2019-01-11T12:30:02.463Z,29.93
2019-01-11T12:31:11.929Z,30.13
2019-01-11T12:32:22.139Z,30.04
2019-01-11T12:33:31.349Z,30.32
2019-01-11T12:34:40.793Z,30.4
2019-01-11T12:35:50.251Z,30.02
2019-01-11T12:36:59.942Z,30.13
2019-01-11T12:38:16.094Z,30.21
2019-01-11T12:39:25.041Z,30.31
2019-01-11T12:40:34.720Z,29.93
2019-01-11T12:41:44.428Z,30.02
2019-01-11T12:42:53.373Z,30.21
2019-01-11T12:44:02.568Z,30.11
2019-01-11T12:45:12.251Z,30.13
2019-01-11T12:46:21.948Z,30.11
2019-01-11T12:47:31.645Z,30.11
2019-01-11T12:48:40.575Z,29.94
2019-01-11T12:49:49.523Z,29.93
2019-01-11T12:50:58.956Z,30.11
2019-01-11T12:52:08.135Z,30.02
2019-01-11T12:53:17.064Z,29.93
2019-01-11T12:54:26.007Z,29.93
2019-01-11T12:55:35.189Z,29.93
2019-01-11T12:56:44.649Z,30.31
2019-01-11T12:57:53.572Z,30.02
2019-01-11T12:59:03.011Z,30.5
2019-01-11T13:00:12.459Z,29.93
2019-01-11T13:01:21.889Z,30.5
2019-01-11T13:02:31.324Z,30.11
2019-01-11T13:03:40.511Z,30.4
2019-01-11T13:04:50.185Z,30.6
2019-01-11T13:05:59.366Z,30.4
2019-01-11T13:07:08.561Z,30.4
2019-01-11T13:08:17.518Z,30.5
2019-01-11T13:09:27.192Z,30.4
2019-01-11T13:10:36.410Z,30.5
2019-01-11T13:11:45.331Z,30.4
2019-01-11T13:12:54.759Z,30.4
2019-01-11T13:14:03.929Z,30.5
2019-01-11T13:15:13.611Z,30.4
2019-01-11T13:16:22.544Z,30.31
2019-01-11T13:17:31.722Z,30.5
2019-01-11T13:18:40.400Z,30.4
2019-01-11T13:19:49.597Z,30.31
2019-01-11T13:20:59.045Z,30.4
2019-01-11T13:22:08.490Z,30.4
2019-01-11T13:23:18.200Z,30.4
2019-01-11T13:24:27.374Z,30.4
2019-01-11T13:25:36.802Z,30.21
2019-01-11T13:26:46.485Z,30.4
2019-01-11T13:27:56.162Z,30.21
2019-01-11T13:29:05.114Z,30.4
2019-01-11T13:30:14.300Z,30.4
2019-01-11T13:31:23.476Z,30.21
2019-01-11T13:32:32.662Z,30.4
2019-01-11T13:33:42.092Z,30.4
2019-01-11T13:34:51.277Z,30.31
2019-01-11T13:36:00.950Z,30.21
2019-01-11T13:37:10.131Z,30.31
2019-01-11T13:38:19.306Z,30.31
2019-01-11T13:39:28.475Z,30.31
2019-01-11T13:40:37.402Z,30.4
2019-01-11T13:41:46.337Z,30.4
2019-01-11T13:42:55.793Z,30.21
2019-01-11T13:44:05.247Z,30.21
2019-01-11T13:45:14.671Z,30.5
2019-01-11T13:46:25.129Z,30.6
2019-01-11T13:47:35.469Z,30.4
2019-01-11T13:48:44.917Z,30.4
2019-01-11T13:49:54.124Z,30.5
2019-01-11T13:51:03.811Z,30.5
2019-01-11T13:52:13.000Z,30.31
2019-01-11T13:53:22.933Z,30.6
2019-01-11T13:54:32.131Z,30.31
2019-01-11T13:55:41.564Z,30.6
2019-01-11T13:56:50.742Z,30.5
2019-01-11T13:58:00.427Z,30.6
2019-01-11T13:59:09.865Z,30.6
2019-01-11T14:00:18.791Z,30.5
2019-01-11T14:01:27.967Z,30.5
2019-01-11T14:02:37.659Z,30.21
2019-01-11T14:03:47.101Z,30.69
2019-01-11T14:04:56.785Z,30.6
2019-01-11T14:06:05.718Z,30.21
2019-01-11T14:07:14.661Z,30.5
2019-01-11T14:08:23.838Z,30.21
2019-01-11T14:09:32.793Z,30.5
2019-01-11T14:10:41.734Z,30.21
2019-01-11T14:11:50.686Z,30.21
2019-01-11T14:12:59.608Z,30.5
2019-01-11T14:14:09.067Z,30.69
2019-01-11T14:15:18.524Z,30.6
2019-01-11T14:16:27.950Z,30.5
2019-01-11T14:17:36.884Z,30.69
2019-01-11T14:18:46.558Z,30.21
2019-01-11T14:19:55.476Z,30.5
2019-01-11T14:21:04.914Z,30.6
2019-01-11T14:22:16.336Z,30.79
2019-01-11T14:23:26.259Z,30.5
2019-01-11T14:24:35.469Z,30.5
2019-01-11T14:25:45.160Z,30.6
2019-01-11T14:26:54.341Z,30.5
2019-01-11T14:28:03.626Z,30.4
2019-01-11T14:29:12.575Z,30.31
2019-01-11T14:30:21.749Z,30.31
2019-01-11T14:31:31.166Z,30.31
2019-01-11T14:32:40.097Z,30.4
2019-01-11T14:33:49.545Z,30.31
2019-01-11T14:34:58.977Z,30.4
2019-01-11T14:36:08.426Z,30.4
2019-01-11T14:37:17.600Z,30.11
2019-01-11T14:38:27.335Z,29.93
2019-01-11T14:39:37.078Z,30.11
2019-01-11T14:40:46.508Z,30.11
2019-01-11T14:41:55.814Z,30.13
2019-01-11T14:43:05.244Z,30.11
2019-01-11T14:44:15.195Z,30.31
2019-01-11T14:45:24.374Z,30.32
2019-01-11T14:46:33.815Z,29.93
2019-01-11T14:47:43.040Z,30.21
2019-01-11T14:48:52.486Z,30.32
2019-01-11T14:50:01.730Z,30.21
2019-01-11T14:51:10.937Z,30.21
2019-01-11T14:52:22.982Z,30.32
2019-01-11T14:53:32.191Z,30.13
2019-01-11T14:54:41.124Z,30.11
2019-01-11T14:55:56.116Z,30.21
2019-01-11T14:57:05.696Z,29.93
2019-01-11T14:58:14.875Z,30.11
2019-01-11T14:59:24.319Z,29.93
2019-01-11T15:00:33.768Z,30.02